Time;durP1;ratioP1;P1;durP2;ratioP2;P2;SDS_P1;SDS_P2;PMS_P1;PMS_P2;Temp;Humidity;BMP_temperature;BMP_pressure;BME280_temperature;BME280_humidity;BME280_pressure;Samples;Min_cycle;Max_cycle;Signal;HPM_P1;HPM_P2
2021/10/02 00:01:33;;;;;;;5.25;2.47;;;;;;;11.96;59.88;99789.19;10306325;28;20046;-68
2021/10/02 00:49:19;;;;;;;5.00;2.75;;;;;;;11.70;60.74;99784.00;10308789;28;20485;-68
2021/10/02 00:54:21;;;;;;;7.90;3.30;;;;;;;11.74;61.01;99777.63;10308037;28;20052;-67
2021/10/02 00:59:23;;;;;;;9.25;3.13;;;;;;;11.88;60.70;99769.66;10308546;28;20054;-68
2021/10/02 01:04:43;;;;;;;6.65;3.03;;;;;;;11.98;60.44;99757.63;10307211;28;20093;-68
2021/10/02 01:10:12;;;;;;;7.93;2.90;;;;;;;11.82;61.01;99747.34;10307654;28;20053;-67
2021/10/02 01:15:26;;;;;;;5.05;2.95;;;;;;;11.94;61.00;99740.41;10322722;28;20600;-68
2021/10/02 01:21:15;;;;;;;5.60;3.00;;;;;;;11.73;61.41;99740.09;10306638;28;20057;-68
2021/10/02 01:26:27;;;;;;;8.23;2.85;;;;;;;11.70;61.62;99745.53;10305311;28;20052;-67
2021/10/02 01:31:44;;;;;;;8.63;2.90;;;;;;;11.66;61.99;99741.44;10305905;28;20428;-68
2021/10/02 01:37:30;;;;;;;9.20;3.33;;;;;;;11.52;61.97;99735.47;10306951;28;20411;-68
2021/10/02 01:47:49;;;;;;;11.35;4.55;;;;;;;11.94;62.41;99741.25;10305465;28;20291;-68
2021/10/02 01:52:52;;;;;;;7.50;2.90;;;;;;;11.97;62.21;99740.19;10307023;28;20058;-68
2021/10/02 01:58:10;;;;;;;6.07;3.05;;;;;;;11.93;62.78;99733.47;10304095;28;20418;-68
2021/10/02 02:03:16;;;;;;;7.85;3.10;;;;;;;11.98;62.61;99729.63;10310334;28;20054;-67
2021/10/02 02:08:21;;;;;;;4.82;3.10;;;;;;;12.02;62.71;99725.84;10312733;28;20064;-68
2021/10/02 02:13:25;;;;;;;6.53;3.22;;;;;;;11.88;63.51;99710.25;10313331;28;20094;-68
2021/10/02 02:18:28;;;;;;;8.43;3.88;;;;;;;11.81;63.40;99708.97;10313252;28;20521;-68
2021/10/02 02:23:30;;;;;;;5.13;3.38;;;;;;;11.85;63.20;99720.91;10312216;28;20794;-67
2021/10/02 02:28:35;;;;;;;8.18;3.30;;;;;;;11.92;63.27;99731.81;10312573;28;20054;-67
2021/10/02 02:33:39;;;;;;;7.57;3.83;;;;;;;12.00;63.25;99719.88;10311160;28;20137;-67
2021/10/02 02:38:40;;;;;;;9.52;3.90;;;;;;;12.06;62.83;99731.72;10311465;28;20399;-68
2021/10/02 02:43:43;;;;;;;6.88;3.95;;;;;;;12.11;63.08;99721.72;10312090;28;20132;-67
2021/10/02 02:48:55;;;;;;;7.55;3.38;;;;;;;12.14;63.25;99726.78;10326630;28;20137;-67
2021/10/02 02:54:08;;;;;;;7.18;3.40;;;;;;;12.15;63.43;99723.19;10311450;28;20426;-68
2021/10/02 02:59:37;;;;;;;8.05;3.38;;;;;;;12.09;63.35;99728.88;10325640;28;20101;-68
2021/10/02 03:04:39;;;;;;;5.88;3.47;;;;;;;12.09;63.41;99719.22;10304587;28;20064;-67
2021/10/02 03:09:45;;;;;;;6.90;3.90;;;;;;;12.12;63.96;99715.56;10303588;28;20060;-67
2021/10/02 03:14:51;;;;;;;9.68;4.32;;;;;;;12.15;63.60;99710.09;10302999;28;20362;-68
2021/10/02 03:19:53;;;;;;;8.98;4.07;;;;;;;12.13;63.58;99704.97;10303337;28;20290;-68
2021/10/02 03:24:57;;;;;;;7.13;3.25;;;;;;;12.10;63.62;99699.09;10303175;28;20058;-67
2021/10/02 03:29:59;;;;;;;5.15;3.20;;;;;;;12.18;63.61;99706.41;10303205;28;20058;-67
2021/10/02 03:35:01;;;;;;;10.10;4.07;;;;;;;12.16;63.70;99706.53;10304058;28;20056;-67
2021/10/02 03:40:05;;;;;;;7.22;3.92;;;;;;;12.11;63.56;99708.63;10302292;28;20521;-68
2021/10/02 03:45:07;;;;;;;11.85;4.20;;;;;;;11.80;64.73;99722.19;10303901;28;20702;-67
2021/10/02 03:50:10;;;;;;;8.30;3.80;;;;;;;11.75;65.02;99726.88;10303138;28;20138;-68
2021/10/02 03:55:14;;;;;;;8.63;5.00;;;;;;;11.66;65.52;99717.84;10303572;28;20051;-67
2021/10/02 04:00:16;;;;;;;7.18;3.63;;;;;;;11.80;65.10;99727.41;10303086;28;20558;-68
2021/10/02 04:05:18;;;;;;;6.22;3.47;;;;;;;11.99;64.61;99712.94;10302466;28;20499;-68
2021/10/02 04:10:20;;;;;;;9.10;3.90;;;;;;;11.93;65.12;99697.66;10302393;28;20056;-68
2021/10/02 04:15:22;;;;;;;6.22;3.50;;;;;;;11.91;65.30;99701.31;10302345;28;20121;-67
2021/10/02 04:20:24;;;;;;;9.25;4.47;;;;;;;11.97;65.47;99679.91;10305817;28;20096;-67
2021/10/02 04:25:26;;;;;;;7.03;4.70;;;;;;;11.92;65.69;99679.41;10310411;28;20054;-67
2021/10/02 04:30:28;;;;;;;8.57;4.10;;;;;;;11.92;65.53;99669.78;10309860;28;20376;-67
2021/10/02 04:35:29;;;;;;;7.47;4.28;;;;;;;12.01;65.52;99663.88;10308538;28;20068;-67
2021/10/02 04:40:31;;;;;;;7.60;3.45;;;;;;;11.97;65.67;99658.94;10308590;28;20430;-67
2021/10/02 04:45:33;;;;;;;7.80;4.10;;;;;;;12.12;65.61;99668.38;10309498;28;20061;-68
2021/10/02 04:50:35;;;;;;;9.50;4.70;;;;;;;12.07;65.84;99657.34;10307936;28;20462;-67
2021/10/02 04:55:36;;;;;;;6.03;3.50;;;;;;;11.91;65.90;99651.50;10309650;28;20491;-67
2021/10/02 05:00:38;;;;;;;8.98;4.35;;;;;;;12.05;65.88;99654.00;10308085;28;20062;-69
2021/10/02 05:05:40;;;;;;;6.07;4.20;;;;;;;12.08;65.92;99659.06;10309146;28;20466;-69
2021/10/02 05:10:42;;;;;;;10.00;5.25;;;;;;;12.15;66.08;99676.84;10306330;28;20050;-70
2021/10/02 05:15:43;;;;;;;7.65;4.70;;;;;;;12.18;65.62;99673.19;10308818;28;20046;-69
2021/10/02 05:20:45;;;;;;;6.35;3.70;;;;;;;12.16;65.43;99659.34;10323247;28;20112;-70
2021/10/02 05:25:47;;;;;;;7.75;4.50;;;;;;;12.22;65.58;99681.66;10307879;28;20056;-69
2021/10/02 05:30:49;;;;;;;12.00;4.47;;;;;;;12.22;65.96;99681.66;10307484;28;20047;-69
2021/10/02 05:35:51;;;;;;;9.93;3.97;;;;;;;12.23;65.73;99686.81;10307143;28;20146;-69
2021/10/02 05:40:53;;;;;;;8.48;3.72;;;;;;;12.25;65.79;99671.81;10304422;28;20410;-70
2021/10/02 05:45:55;;;;;;;6.85;4.20;;;;;;;12.14;66.14;99671.72;10307623;28;20054;-70
2021/10/02 05:50:57;;;;;;;11.30;3.90;;;;;;;12.23;65.96;99667.63;10307350;28;20043;-69
2021/10/02 05:55:58;;;;;;;8.30;4.22;;;;;;;12.33;66.10;99684.41;10307175;28;20101;-70
2021/10/02 06:01:00;;;;;;;4.95;3.55;;;;;;;12.36;65.72;99682.41;10305615;28;20248;-69
2021/10/02 06:06:02;;;;;;;9.35;4.65;;;;;;;12.36;66.20;99695.53;10306456;28;20054;-71
2021/10/02 06:11:04;;;;;;;6.55;4.07;;;;;;;12.31;66.22;99689.78;10306343;28;20478;-70
2021/10/02 06:16:05;;;;;;;7.75;3.83;;;;;;;12.40;66.18;99681.25;10306537;28;20395;-70
2021/10/02 06:21:11;;;;;;;8.60;4.13;;;;;;;12.50;65.96;99694.53;10305017;28;20129;-70
2021/10/02 06:26:12;;;;;;;6.63;3.75;;;;;;;12.50;66.03;99695.38;10304759;28;20042;-70
2021/10/02 06:31:14;;;;;;;7.88;4.55;;;;;;;12.54;65.96;99694.22;10317931;28;20054;-69
2021/10/02 06:36:16;;;;;;;8.73;5.47;;;;;;;12.63;65.86;99693.56;10302200;28;20402;-68
2021/10/02 06:41:18;;;;;;;7.88;4.75;;;;;;;12.67;65.45;99696.78;10305032;28;20568;-70
2021/10/02 06:46:20;;;;;;;7.95;4.53;;;;;;;12.79;65.38;99682.78;10303643;28;20304;-71
2021/10/02 06:51:21;;;;;;;8.15;5.32;;;;;;;12.96;65.37;99700.78;10305020;28;20397;-71
2021/10/02 06:56:23;;;;;;;8.82;4.07;;;;;;;12.98;65.15;99694.44;10305137;28;20049;-70
2021/10/02 07:01:25;;;;;;;9.38;5.25;;;;;;;13.12;65.10;99676.84;10304913;28;20050;-70
2021/10/02 07:06:32;;;;;;;8.35;4.20;;;;;;;13.39;64.75;99677.44;10303359;28;20389;-70
2021/10/02 07:11:33;;;;;;;8.98;5.40;;;;;;;13.56;64.71;99669.97;10304861;28;20054;-70
2021/10/02 07:16:36;;;;;;;7.75;4.50;;;;;;;13.59;64.87;99679.41;10302957;28;20408;-70
2021/10/02 07:21:40;;;;;;;8.73;4.15;;;;;;;13.71;65.04;99675.84;10304265;28;20312;-69
2021/10/02 07:26:44;;;;;;;10.30;5.35;;;;;;;14.00;64.56;99670.97;10300109;28;20470;-70
2021/10/02 07:31:48;;;;;;;10.07;5.75;;;;;;;14.07;64.72;99670.38;10302844;28;20125;-69
2021/10/02 07:36:50;;;;;;;9.57;5.03;;;;;;;14.27;64.32;99664.38;10303402;28;20050;-69
2021/10/02 07:41:54;;;;;;;10.10;5.68;;;;;;;14.39;64.01;99655.50;10316673;28;20054;-69
2021/10/02 07:47:02;;;;;;;9.88;4.25;;;;;;;14.57;64.08;99656.69;10302851;28;20382;-69
2021/10/02 07:52:05;;;;;;;11.35;5.50;;;;;;;14.79;63.75;99663.72;10299738;28;20069;-69
2021/10/02 07:57:12;;;;;;;5.78;3.53;;;;;;;14.90;63.31;99655.75;10302025;28;20136;-69
2021/10/02 08:02:19;;;;;;;7.45;3.70;;;;;;;14.73;63.54;99658.09;10309525;28;20533;-69
2021/10/02 08:07:22;;;;;;;11.65;5.07;;;;;;;14.99;63.63;99649.75;10309564;28;20149;-70
2021/10/02 08:12:24;;;;;;;10.73;3.75;;;;;;;15.36;62.80;99653.66;10309428;28;20060;-68
2021/10/02 08:17:28;;;;;;;8.77;3.60;;;;;;;15.89;60.56;99651.75;10305663;28;20286;-69
2021/10/02 08:22:30;;;;;;;7.43;3.65;;;;;;;16.23;60.40;99653.13;10322066;28;20141;-69
2021/10/02 08:27:32;;;;;;;6.13;3.55;;;;;;;16.54;60.82;99639.91;10308944;28;20470;-69
2021/10/02 08:32:35;;;;;;;8.63;3.50;;;;;;;16.83;59.67;99646.88;10308622;28;20047;-69
2021/10/02 08:37:37;;;;;;;8.25;3.80;;;;;;;17.01;59.15;99636.47;10307608;28;20418;-69
2021/10/02 08:42:41;;;;;;;8.55;3.13;;;;;;;17.18;58.27;99606.69;10308020;28;20078;-70
2021/10/02 08:47:44;;;;;;;9.02;2.92;;;;;;;17.18;58.01;99590.84;10307549;28;20348;-75
2021/10/02 08:52:47;;;;;;;7.35;3.22;;;;;;;17.58;57.90;99583.56;10302799;28;20514;-74
2021/10/02 08:57:50;;;;;;;6.25;3.13;;;;;;;17.99;56.86;99598.16;10300887;28;20516;-74
2021/10/02 09:02:53;;;;;;;6.13;2.28;;;;;;;17.60;56.76;99586.88;10304374;28;20054;-74
2021/10/02 09:07:58;;;;;;;7.53;2.30;;;;;;;17.45;57.49;99585.66;10305663;28;20073;-74
2021/10/02 09:13:00;;;;;;;4.88;1.92;;;;;;;17.23;57.58;99582.50;10306655;28;20133;-74
2021/10/02 09:18:02;;;;;;;5.45;2.00;;;;;;;17.28;57.28;99583.72;10307078;28;20712;-74
2021/10/02 09:23:08;;;;;;;4.15;1.92;;;;;;;17.44;56.04;99572.59;10306119;28;20503;-73
2021/10/02 09:28:13;;;;;;;3.95;1.75;;;;;;;17.42;55.24;99564.81;10305384;28;20481;-75
2021/10/02 09:33:20;;;;;;;7.65;2.00;;;;;;;17.72;54.89;99555.78;10320950;28;20137;-75
2021/10/02 09:38:23;;;;;;;6.10;1.90;;;;;;;17.71;54.23;99546.19;10305054;28;20046;-74
2021/10/02 09:43:26;;;;;;;5.05;1.80;;;;;;;17.62;54.26;99541.78;10306688;28;20050;-74
2021/10/02 09:48:31;;;;;;;3.67;1.75;;;;;;;17.66;53.75;99538.72;10305299;28;20056;-74
2021/10/02 09:53:40;;;;;;;5.30;1.77;;;;;;;17.21;54.76;99534.22;10304052;28;20042;-74
2021/10/02 09:58:42;;;;;;;5.27;1.63;;;;;;;17.51;54.47;99524.28;10301508;28;20517;-75
2021/10/02 10:03:47;;;;;;;4.63;1.80;;;;;;;17.86;53.92;99523.56;10304576;28;20477;-74
2021/10/02 10:09:08;;;;;;;4.70;1.50;;;;;;;17.52;53.19;99520.69;10305128;28;20562;-74
2021/10/02 10:14:17;;;;;;;5.05;1.70;;;;;;;17.37;53.99;99516.81;10304680;28;20489;-75
2021/10/02 10:19:21;;;;;;;4.20;1.50;;;;;;;17.83;52.77;99508.81;10304548;28;20046;-73
2021/10/02 10:24:23;;;;;;;4.18;1.50;;;;;;;18.12;52.76;99498.06;10302450;28;20058;-73
2021/10/02 10:29:38;;;;;;;5.53;2.10;;;;;;;18.61;51.54;99489.63;10299693;28;20495;-75
2021/10/02 10:34:42;;;;;;;4.10;1.77;;;;;;;18.89;50.47;99487.66;10304238;28;20053;-74
2021/10/02 10:39:43;;;;;;;3.47;1.70;;;;;;;19.09;50.00;99472.44;10317504;28;20046;-74
2021/10/02 10:44:45;;;;;;;5.75;1.90;;;;;;;19.68;49.14;99455.63;10303139;28;20237;-75
2021/10/02 10:49:48;;;;;;;4.05;1.70;;;;;;;19.74;48.11;99442.56;10303496;28;20050;-73
2021/10/02 10:54:53;;;;;;;4.25;1.95;;;;;;;20.08;47.43;99434.53;10302816;28;20064;-73
2021/10/02 10:59:55;;;;;;;3.40;1.55;;;;;;;20.03;47.29;99442.97;10300639;28;20061;-74
2021/10/02 11:04:56;;;;;;;3.80;1.65;;;;;;;19.76;47.94;99431.78;10303307;28;20057;-75
2021/10/02 11:09:58;;;;;;;4.47;1.70;;;;;;;19.42;48.73;99431.81;10303913;28;20057;-76
2021/10/02 11:15:00;;;;;;;4.32;1.65;;;;;;;19.21;48.88;99421.66;10303118;28;20665;-76
2021/10/02 11:20:17;;;;;;;4.85;1.70;;;;;;;19.43;48.42;99407.81;10301098;28;20518;-77
2021/10/02 11:25:22;;;;;;;4.68;1.63;;;;;;;19.85;47.34;99406.94;10300247;28;20053;-78
2021/10/02 11:30:24;;;;;;;4.32;1.60;;;;;;;19.70;47.90;99419.16;10301315;28;20060;-77
2021/10/02 11:35:31;;;;;;;3.03;1.65;;;;;;;19.48;47.08;99396.72;10292762;28;20425;-77
2021/10/02 11:40:33;;;;;;;4.60;1.77;;;;;;;19.48;47.61;99400.19;10299444;28;20504;-77
2021/10/02 11:45:34;;;;;;;4.47;1.48;;;;;;;19.59;47.22;99393.75;10300135;28;20050;-78
2021/10/02 11:50:36;;;;;;;2.72;1.60;;;;;;;19.14;47.48;99378.19;10300141;28;20050;-78
2021/10/02 11:55:41;;;;;;;3.78;1.63;;;;;;;19.42;47.72;99384.94;10300677;28;20125;-78
2021/10/02 12:01:00;;;;;;;3.72;1.58;;;;;;;19.81;46.42;99361.34;10314666;28;20819;-78
2021/10/02 12:06:03;;;;;;;5.30;1.57;;;;;;;20.02;45.69;99356.38;10300645;28;20104;-76
2021/10/02 12:11:09;;;;;;;3.95;1.50;;;;;;;19.86;46.26;99363.50;10301364;28;20441;-78
2021/10/02 12:16:14;;;;;;;3.75;1.50;;;;;;;19.73;45.89;99355.97;10297422;28;20050;-75
2021/10/02 12:21:22;;;;;;;3.03;1.50;;;;;;;20.01;44.54;99346.75;10299893;28;20042;-76
2021/10/02 12:26:25;;;;;;;3.33;1.50;;;;;;;20.58;44.53;99342.25;10299209;28;20046;-77
2021/10/02 12:31:46;;;;;;;3.40;1.40;;;;;;;20.36;44.61;99334.94;10313661;28;20418;-78
2021/10/02 12:36:52;;;;;;;;;;;;;;;20.20;44.67;99322.53;10301048;28;20057;-77
2021/10/02 12:41:54;;;;;;;3.70;1.50;;;;;;;20.73;43.26;99299.88;10303448;28;19926;-76
2021/10/02 12:47:01;;;;;;;4.68;1.50;;;;;;;20.49;42.03;99290.13;10300545;28;20064;-76
2021/10/02 12:52:03;;;;;;;3.22;1.60;;;;;;;20.40;42.83;99285.00;10306732;28;20076;-75
2021/10/02 12:57:10;;;;;;;3.42;1.52;;;;;;;20.64;42.32;99277.78;10306734;28;20061;-78
2021/10/02 13:02:14;;;;;;;4.55;1.42;;;;;;;20.65;42.55;99279.47;10303123;28;20078;-79
2021/10/02 13:07:27;;;;;;;3.60;1.58;;;;;;;20.72;41.51;99275.13;10304369;28;20125;-78
2021/10/02 13:12:33;;;;;;;6.43;1.65;;;;;;;20.75;43.08;99263.31;10303350;28;20054;-79
2021/10/02 13:17:35;;;;;;;3.00;1.35;;;;;;;20.69;42.48;99251.56;10307026;28;20060;-79
2021/10/02 13:22:42;;;;;;;3.33;1.40;;;;;;;20.31;42.89;99231.06;10304194;28;20656;-78
2021/10/02 13:27:45;;;;;;;3.65;1.45;;;;;;;20.44;42.52;99223.38;10305841;28;20057;-79
2021/10/02 13:33:05;;;;;;;3.47;1.45;;;;;;;20.35;43.22;99212.97;10305484;28;20403;-79
2021/10/02 13:38:10;;;;;;;3.17;1.30;;;;;;;20.18;43.56;99199.75;10307159;28;20066;-79
2021/10/02 13:43:13;;;;;;;3.63;1.65;;;;;;;20.24;43.51;99185.78;10306712;28;20046;-79
2021/10/02 13:48:16;;;;;;;3.78;1.40;;;;;;;20.41;43.26;99169.78;10306365;28;20088;-79
2021/10/02 13:53:18;;;;;;;4.68;2.40;;;;;;;20.54;42.50;99160.25;10301891;28;20057;-80
2021/10/02 13:58:20;;;;;;;4.93;1.50;;;;;;;20.48;41.77;99150.31;10304754;28;20531;-80
2021/10/02 14:03:22;;;;;;;3.53;1.13;;;;;;;20.54;41.91;99144.31;10303843;28;20080;-79
2021/10/02 14:08:24;;;;;;;3.38;1.48;;;;;;;20.78;41.43;99148.72;10305189;28;20065;-79
2021/10/02 14:13:28;;;;;;;3.15;1.20;;;;;;;20.68;41.28;99140.13;10299087;28;20046;-79
2021/10/02 14:18:29;;;;;;;3.35;1.58;;;;;;;20.50;41.91;99140.34;10305157;28;20549;-78
2021/10/02 14:23:31;;;;;;;2.95;1.30;;;;;;;20.43;41.86;99142.06;10319149;28;20390;-79
2021/10/02 14:28:33;;;;;;;4.45;1.27;;;;;;;20.13;41.83;99124.25;10304848;28;20086;-80
2021/10/02 14:33:35;;;;;;;4.57;1.60;;;;;;;19.86;42.67;99119.38;10298740;28;20046;-81
2021/10/02 14:38:38;;;;;;;4.15;1.40;;;;;;;19.74;43.04;99134.78;10304731;28;20054;-81
2021/10/02 14:43:42;;;;;;;2.95;1.20;;;;;;;19.79;42.97;99115.69;10313134;28;20301;-81
2021/10/02 14:48:44;;;;;;;4.32;1.33;;;;;;;19.79;42.91;99105.06;10303345;28;20054;-82
2021/10/02 14:53:47;;;;;;;4.18;1.20;;;;;;;19.75;43.41;99087.84;10304170;28;20046;-81
2021/10/02 14:58:50;;;;;;;3.22;1.38;;;;;;;19.85;43.75;99089.34;10304263;28;20137;-81
2021/10/02 15:03:52;;;;;;;4.70;1.33;;;;;;;19.90;44.14;99081.72;10300238;28;20157;-71
2021/10/02 15:08:55;;;;;;;2.50;1.17;;;;;;;19.83;44.29;99069.28;10302748;28;20058;-71
2021/10/02 15:13:58;;;;;;;3.05;1.10;;;;;;;19.48;44.72;99053.78;10302733;28;20507;-72
2021/10/02 15:18:59;;;;;;;5.65;1.65;;;;;;;19.36;45.06;99050.63;10301424;28;20503;-71
2021/10/02 15:24:04;;;;;;;4.28;1.50;;;;;;;19.41;44.83;99043.84;10302308;28;20335;-71
2021/10/02 15:29:08;;;;;;;8.43;4.70;;;;;;;19.41;45.25;99038.53;10298334;28;20050;-71
2021/10/02 15:34:10;;;;;;;6.07;2.40;;;;;;;19.32;45.32;99038.69;10300093;28;20060;-71
2021/10/02 15:39:12;;;;;;;5.05;2.45;;;;;;;19.34;45.48;99042.00;10300670;28;20073;-71
2021/10/02 15:44:15;;;;;;;3.97;1.48;;;;;;;19.36;45.97;99042.66;10298228;28;20051;-71
2021/10/02 15:49:17;;;;;;;4.68;1.60;;;;;;;19.33;45.80;99046.50;10300160;28;20387;-71
2021/10/02 15:54:22;;;;;;;4.20;1.35;;;;;;;19.30;45.95;99036.22;10301345;28;20047;-71
2021/10/02 15:59:26;;;;;;;3.50;1.50;;;;;;;19.28;46.28;99026.78;10300465;28;20046;-71
2021/10/02 16:04:34;;;;;;;9.45;2.70;;;;;;;19.20;46.77;99003.78;10299804;28;20068;-71
2021/10/02 16:09:39;;;;;;;2.40;1.20;;;;;;;19.00;47.08;98989.19;10299919;28;20054;-72
2021/10/02 16:14:44;;;;;;;4.00;1.38;;;;;;;18.74;47.17;98977.97;10303278;28;20064;-72
2021/10/02 16:19:46;;;;;;;4.45;1.60;;;;;;;18.54;47.60;98966.84;10306254;28;20154;-71
2021/10/02 16:24:48;;;;;;;4.03;1.85;;;;;;;18.36;47.99;98976.78;10307329;28;20503;-71
2021/10/02 16:29:50;;;;;;;5.05;2.20;;;;;;;18.20;48.71;98973.31;10307988;28;20248;-72
2021/10/02 16:34:52;;;;;;;8.35;2.03;;;;;;;18.08;48.84;98978.03;10297453;28;20521;-71
2021/10/02 16:39:54;;;;;;;4.80;2.00;;;;;;;17.81;49.35;98967.72;10301112;28;20140;-71
2021/10/02 16:44:56;;;;;;;4.25;1.90;;;;;;;17.68;49.49;98968.16;10302483;28;20534;-71
2021/10/02 16:49:58;;;;;;;3.88;1.70;;;;;;;17.61;50.15;98961.00;10305368;28;20051;-71
2021/10/02 16:55:04;;;;;;;5.50;2.30;;;;;;;17.52;49.23;98957.53;10321440;28;20050;-71
2021/10/02 17:00:08;;;;;;;4.55;1.90;;;;;;;17.51;49.58;98932.06;10304746;28;20410;-71
2021/10/02 17:05:10;;;;;;;2.65;1.65;;;;;;;17.44;49.18;98933.72;10305444;28;20511;-71
2021/10/02 17:10:12;;;;;;;4.47;2.22;;;;;;;17.39;49.42;98924.56;10320887;28;20050;-72
2021/10/02 17:15:17;;;;;;;4.65;1.88;;;;;;;17.36;49.43;98928.38;10301943;28;20320;-71
2021/10/02 17:20:19;;;;;;;4.10;2.00;;;;;;;17.27;48.92;98913.44;10306272;28;20061;-72
2021/10/02 17:25:23;;;;;;;3.97;2.00;;;;;;;17.22;48.73;98906.97;10302939;28;20073;-72
2021/10/02 17:30:25;;;;;;;5.72;2.50;;;;;;;17.22;48.38;98894.56;10305510;28;20573;-72
2021/10/02 17:35:27;;;;;;;5.72;2.10;;;;;;;17.23;48.20;98887.47;10306425;28;20558;-72
2021/10/02 17:40:29;;;;;;;4.90;2.20;;;;;;;17.22;48.08;98886.63;10305819;28;20560;-71
2021/10/02 17:45:31;;;;;;;3.45;2.10;;;;;;;17.28;47.75;98888.66;10303472;28;20066;-72
2021/10/02 17:50:35;;;;;;;4.00;1.98;;;;;;;17.25;47.06;98886.34;10307472;28;20054;-72
2021/10/02 17:55:37;;;;;;;4.25;2.10;;;;;;;17.30;47.31;98876.09;10304043;28;20525;-72
2021/10/02 18:00:39;;;;;;;3.92;2.30;;;;;;;17.29;47.88;98878.91;10305165;28;20053;-71
2021/10/02 18:05:42;;;;;;;5.25;2.40;;;;;;;17.26;47.45;98868.69;10301562;28;20133;-72
2021/10/02 18:10:44;;;;;;;6.40;2.20;;;;;;;17.23;47.56;98864.53;10303189;28;20472;-71
2021/10/02 18:15:47;;;;;;;4.30;2.40;;;;;;;17.20;47.40;98851.63;10304215;28;20525;-72
2021/10/02 18:20:49;;;;;;;4.55;2.30;;;;;;;17.16;47.53;98852.94;10305504;28;20061;-71
2021/10/02 18:30:53;;;;;;;5.03;2.35;;;;;;;17.26;47.26;98837.78;10305501;28;20498;-72
2021/10/02 18:35:55;;;;;;;5.90;2.50;;;;;;;17.23;47.19;98830.19;10304651;28;20046;-72
2021/10/02 18:40:57;;;;;;;4.60;2.40;;;;;;;17.28;47.38;98833.16;10302398;28;20441;-72
2021/10/02 18:45:59;;;;;;;8.05;3.00;;;;;;;17.28;47.16;98827.88;10304929;28;20050;-71
2021/10/02 18:51:01;;;;;;;4.45;2.65;;;;;;;17.30;47.27;98820.59;10304782;28;20344;-72
2021/10/02 18:56:04;;;;;;;6.28;2.63;;;;;;;17.32;47.26;98809.91;10304533;28;20061;-72
2021/10/02 19:01:10;;;;;;;4.72;2.60;;;;;;;17.31;48.09;98808.22;10304196;28;20054;-72
2021/10/02 19:06:12;;;;;;;6.10;2.45;;;;;;;17.26;48.03;98807.91;10303978;28;20137;-72
2021/10/02 19:11:13;;;;;;;5.35;2.38;;;;;;;17.25;47.98;98808.88;10319664;28;20054;-72
2021/10/02 19:16:15;;;;;;;5.43;2.80;;;;;;;17.30;47.62;98796.03;10302402;28;20057;-72
2021/10/02 19:21:17;;;;;;;5.18;2.83;;;;;;;17.29;48.55;98799.63;10302055;28;20052;-67
2021/10/02 19:26:28;;;;;;;5.70;3.00;;;;;;;17.20;48.58;98792.69;10303437;28;20312;-67
2021/10/02 19:31:30;;;;;;;5.13;2.70;;;;;;;17.17;49.35;98780.63;10303443;28;21088;-68
2021/10/02 19:36:32;;;;;;;4.85;2.90;;;;;;;17.17;49.73;98783.25;10302860;28;20512;-68
2021/10/02 19:41:35;;;;;;;5.75;2.67;;;;;;;17.21;49.25;98792.53;10301534;28;20047;-68
2021/10/02 19:46:37;;;;;;;5.60;2.90;;;;;;;17.18;49.13;98776.97;10302474;28;20421;-68
2021/10/02 19:51:42;;;;;;;4.63;3.20;;;;;;;17.23;50.23;98772.03;10308425;28;20132;-68
2021/10/02 19:56:43;;;;;;;11.48;3.28;;;;;;;17.23;50.28;98773.84;10310847;28;20050;-67
2021/10/02 20:01:46;;;;;;;4.38;2.65;;;;;;;17.16;50.13;98765.75;10310514;28;20060;-67
2021/10/02 20:06:52;;;;;;;4.72;3.00;;;;;;;17.14;50.44;98754.50;10308281;28;20062;-67
2021/10/02 20:11:53;;;;;;;5.88;3.30;;;;;;;17.17;50.47;98748.91;10309726;28;20058;-67
2021/10/02 20:16:56;;;;;;;8.70;3.60;;;;;;;17.25;50.48;98748.09;10309363;28;20050;-67
2021/10/02 20:21:58;;;;;;;7.32;3.25;;;;;;;17.32;50.32;98747.31;10308226;28;20435;-67
2021/10/02 20:26:59;;;;;;;6.05;3.40;;;;;;;17.39;50.20;98740.41;10308253;28;20057;-67
2021/10/02 20:32:02;;;;;;;9.43;3.63;;;;;;;17.44;50.00;98746.03;10323659;28;20057;-67
2021/10/02 20:37:04;;;;;;;6.40;3.83;;;;;;;17.60;49.98;98729.34;10308918;28;20078;-68
2021/10/02 20:42:07;;;;;;;6.32;3.38;;;;;;;17.73;49.66;98724.38;10308314;28;20108;-67
2021/10/02 20:47:08;;;;;;;7.45;3.97;;;;;;;17.85;49.77;98713.28;10309000;28;20052;-67
2021/10/02 20:52:10;;;;;;;5.93;3.05;;;;;;;17.93;49.83;98707.19;10308068;28;20499;-68
2021/10/02 20:57:12;;;;;;;6.88;3.30;;;;;;;17.99;49.46;98703.03;10308564;28;20055;-67
2021/10/02 21:02:15;;;;;;;7.40;3.40;;;;;;;18.02;50.07;98700.88;10306627;28;20133;-68
2021/10/02 21:07:17;;;;;;;6.35;3.50;;;;;;;17.98;50.30;98691.63;10305939;28;20050;-67
2021/10/02 21:12:20;;;;;;;7.35;3.50;;;;;;;17.99;50.53;98687.16;10307456;28;20065;-67
2021/10/02 21:17:22;;;;;;;4.97;3.40;;;;;;;17.95;50.78;98675.28;10307880;28;20050;-67
2021/10/02 21:22:24;;;;;;;6.55;3.53;;;;;;;17.97;50.78;98681.22;10306804;28;20516;-67
2021/10/02 21:27:29;;;;;;;6.03;3.58;;;;;;;17.94;50.91;98652.44;10307524;28;20425;-67
2021/10/02 21:32:31;;;;;;;5.20;3.38;;;;;;;17.94;50.50;98649.78;10306097;28;20064;-67
2021/10/02 21:37:33;;;;;;;4.38;2.90;;;;;;;18.00;50.15;98641.19;10304569;28;20302;-68
2021/10/02 21:42:35;;;;;;;6.38;3.10;;;;;;;18.08;49.88;98638.50;10301049;28;20046;-68
2021/10/02 21:47:37;;;;;;;6.82;3.33;;;;;;;18.05;50.10;98645.00;10305734;28;20058;-68
2021/10/02 21:52:41;;;;;;;5.28;3.10;;;;;;;18.09;49.49;98641.00;10306093;28;20046;-68
2021/10/02 21:57:44;;;;;;;8.13;3.50;;;;;;;18.07;49.62;98645.66;10305768;28;20188;-67
2021/10/02 22:02:47;;;;;;;5.15;2.97;;;;;;;18.20;49.44;98647.78;10303347;28;20057;-68
2021/10/02 22:07:49;;;;;;;4.88;3.08;;;;;;;18.18;49.38;98647.09;10302847;28;20605;-68
2021/10/02 22:12:51;;;;;;;4.80;3.35;;;;;;;18.24;49.55;98638.50;10225497;28;20047;-68
2021/10/02 22:17:53;;;;;;;5.53;3.30;;;;;;;18.22;49.32;98635.22;10238142;28;20640;-68
2021/10/02 22:22:56;;;;;;;7.18;3.45;;;;;;;18.27;49.42;98638.16;10222406;29;20047;-68
2021/10/02 22:27:59;;;;;;;5.45;3.25;;;;;;;18.30;49.21;98617.47;10223171;28;20090;-68
2021/10/02 22:33:02;;;;;;;5.95;3.50;;;;;;;18.34;49.10;98624.06;10224098;28;20083;-67
2021/10/02 22:38:04;;;;;;;6.70;3.40;;;;;;;18.35;48.77;98614.31;10223969;28;20484;-68
2021/10/02 22:43:06;;;;;;;5.43;3.15;;;;;;;18.40;48.53;98617.28;10233281;28;20563;-68
2021/10/02 22:48:08;;;;;;;7.55;3.35;;;;;;;18.46;48.70;98606.00;10222177;28;20059;-68
2021/10/02 22:53:11;;;;;;;5.50;3.17;;;;;;;18.50;48.32;98597.50;10222165;28;20130;-68
2021/10/02 22:58:13;;;;;;;6.30;3.40;;;;;;;18.56;48.53;98572.19;10222422;28;20384;-67
2021/10/02 23:03:15;;;;;;;4.95;3.38;;;;;;;18.56;48.53;98588.06;10223601;28;20051;-67
2021/10/02 23:08:18;;;;;;;8.05;3.00;;;;;;;18.59;47.99;98575.28;10228900;28;20062;-67
2021/10/02 23:13:20;;;;;;;6.07;3.25;;;;;;;18.63;47.83;98583.69;10303702;28;20056;-68
2021/10/02 23:18:28;;;;;;;5.22;3.08;;;;;;;18.70;47.46;98579.38;10303385;28;20148;-67
2021/10/02 23:23:31;;;;;;;4.80;3.05;;;;;;;18.81;47.52;98573.66;10302303;28;20111;-67
2021/10/02 23:28:32;;;;;;;5.43;3.10;;;;;;;18.79;47.17;98578.28;10303417;28;20064;-67
2021/10/02 23:33:34;;;;;;;4.25;2.90;;;;;;;18.82;47.11;98575.31;10302398;28;20046;-68
2021/10/02 23:38:36;;;;;;;5.10;3.13;;;;;;;18.80;47.07;98561.41;10302949;28;20057;-67
2021/10/02 23:43:38;;;;;;;4.72;3.00;;;;;;;18.72;46.90;98542.94;10303336;28;20514;-67
2021/10/02 23:48:40;;;;;;;4.55;3.00;;;;;;;18.77;47.06;98540.56;10303099;28;20356;-67
2021/10/02 23:53:44;;;;;;;6.03;3.83;;;;;;;18.76;46.88;98535.44;10302844;28;20038;-67
2021/10/02 23:58:47;;;;;;;4.65;3.22;;;;;;;18.72;47.13;98535.00;10302242;28;20518;-67
